Time;durP1;ratioP1;P1;durP2;ratioP2;P2;SDS_P1;SDS_P2;PMS_P1;PMS_P2;Temp;Humidity;BMP_temperature;BMP_pressure;BME280_temperature;BME280_humidity;BME280_pressure;Samples;Min_cycle;Max_cycle;Signal;HPM_P1;HPM_P2
2021/09/07 00:01:48;;;;;;;37.50;18.93;;;8.20;99.90;;;;;;4899865;29;20182;-92
2021/09/07 00:04:14;;;;;;;41.37;19.30;;;8.10;99.90;;;;;;4883812;29;20694;-93
2021/09/07 00:06:40;;;;;;;39.27;19.00;;;8.20;99.90;;;;;;4868562;29;20181;-92
2021/09/07 00:09:06;;;;;;;34.33;18.30;;;8.10;99.90;;;;;;4883382;29;20209;-93
2021/09/07 00:11:32;;;;;;;39.97;18.77;;;8.10;99.90;;;;;;4867697;29;20181;-92
2021/09/07 00:13:58;;;;;;;31.33;17.90;;;8.10;99.90;;;;;;4900361;29;20642;-92
2021/09/07 00:16:23;;;;;;;37.53;18.67;;;8.10;99.90;;;;;;4868258;29;20189;-91
2021/09/07 00:18:49;;;;;;;36.07;19.50;;;8.10;99.90;;;;;;4899911;29;20195;-90
2021/09/07 00:21:15;;;;;;;44.43;19.77;;;8.00;99.90;;;;;;4899358;29;20268;-92
2021/09/07 00:23:41;;;;;;;37.77;18.60;;;8.00;99.90;;;;;;4900152;29;20205;-92
2021/09/07 00:26:06;;;;;;;37.83;19.17;;;8.00;99.90;;;;;;4882810;29;20189;-90
2021/09/07 00:28:32;;;;;;;41.83;20.57;;;8.00;99.90;;;;;;4883138;29;20213;-92
2021/09/07 00:30:58;;;;;;;42.73;21.33;;;;;;;;;;4884158;29;20209;-91
2021/09/07 00:33:24;;;;;;;44.17;20.30;;;7.90;99.90;;;;;;4903940;29;20187;-92
2021/09/07 00:35:49;;;;;;;41.90;20.47;;;7.90;99.90;;;;;;4886990;29;20244;-91
2021/09/07 00:38:15;;;;;;;46.00;21.67;;;;;;;;;;4888103;29;20193;-91
2021/09/07 00:40:41;;;;;;;42.00;21.90;;;7.90;99.90;;;;;;4909318;29;20181;-91
2021/09/07 00:43:07;;;;;;;42.23;21.43;;;7.90;99.90;;;;;;4857365;29;20221;-92
2021/09/07 00:45:32;;;;;;;42.03;21.47;;;7.80;99.90;;;;;;4889728;29;20233;-92
2021/09/07 00:47:58;;;;;;;42.23;20.50;;;7.90;99.90;;;;;;4893997;29;20189;-91
2021/09/07 00:50:24;;;;;;;42.87;22.10;;;;;;;;;;4875494;29;20192;-93
2021/09/07 00:52:50;;;;;;;42.33;20.87;;;7.90;99.90;;;;;;4903128;29;20267;-92
2021/09/07 00:55:16;;;;;;;45.73;21.90;;;7.90;99.90;;;;;;4902237;29;20397;-92
2021/09/07 00:57:45;;;;;;;46.13;22.40;;;7.80;99.90;;;;;;4901773;29;20181;-92
2021/09/07 01:00:11;;;;;;;46.07;21.97;;;7.90;99.90;;;;;;4900139;29;20580;-92
2021/09/07 01:02:39;;;;;;;48.73;21.73;;;7.90;99.90;;;;;;4882971;29;20571;-92
2021/09/07 01:05:06;;;;;;;48.77;22.40;;;7.90;99.90;;;;;;4882195;29;20687;-92
2021/09/07 01:07:33;;;;;;;42.00;20.77;;;7.90;99.90;;;;;;4899288;29;20543;-92
2021/09/07 01:09:59;;;;;;;43.67;21.70;;;7.80;99.90;;;;;;4899288;29;20262;-91
2021/09/07 01:12:25;;;;;;;43.20;21.97;;;7.90;99.90;;;;;;4900179;29;20232;-92
2021/09/07 01:14:51;;;;;;;47.90;22.13;;;7.90;99.90;;;;;;4900228;29;20181;-91
2021/09/07 01:17:18;;;;;;;47.70;23.53;;;7.90;99.90;;;;;;4884159;29;20704;-92
2021/09/07 01:19:47;;;;;;;47.80;24.07;;;7.90;99.90;;;;;;4899678;29;20217;-92
2021/09/07 01:22:13;;;;;;;51.30;24.73;;;7.90;99.90;;;;;;4882927;29;20184;-91
2021/09/07 01:24:39;;;;;;;51.77;25.10;;;7.80;99.90;;;;;;4867258;29;20197;-92
2021/09/07 01:27:05;;;;;;;43.87;23.63;;;;;;;;;;4898534;29;20177;-90
2021/09/07 01:29:37;;;;;;;49.37;24.27;;;7.80;99.90;;;;;;4898571;29;20228;-90
2021/09/07 01:32:04;;;;;;;47.27;22.20;;;7.80;99.90;;;;;;4881999;29;20178;-91
2021/09/07 01:34:30;;;;;;;49.97;23.20;;;7.80;99.90;;;;;;4882089;29;20193;-91
2021/09/07 01:36:56;;;;;;;43.33;22.33;;;7.80;99.90;;;;;;4882454;29;20580;-91
2021/09/07 01:39:23;;;;;;;50.87;23.37;;;7.70;99.90;;;;;;4881707;29;20193;-91
2021/09/07 01:41:50;;;;;;;51.20;24.57;;;7.70;99.90;;;;;;4882554;29;20189;-91
2021/09/07 01:44:17;;;;;;;50.00;22.97;;;7.70;99.90;;;;;;4898265;29;20185;-91
2021/09/07 01:46:42;;;;;;;51.30;24.23;;;7.70;99.90;;;;;;4866288;29;20208;-92
2021/09/07 01:49:11;;;;;;;47.37;22.60;;;7.70;99.90;;;;;;4913220;29;20212;-90
2021/09/07 01:51:38;;;;;;;55.27;23.93;;;7.70;99.90;;;;;;4896463;29;20181;-90
2021/09/07 01:54:05;;;;;;;51.43;23.43;;;7.70;99.90;;;;;;4901752;29;20186;-90
2021/09/07 01:56:30;;;;;;;49.10;22.50;;;7.70;99.90;;;;;;4881959;29;20657;-92
2021/09/07 01:58:56;;;;;;;50.30;23.10;;;7.60;99.90;;;;;;4866555;29;20200;-91
2021/09/07 02:01:21;;;;;;;55.10;23.37;;;7.60;99.90;;;;;;4881537;29;20249;-91
2021/09/07 02:03:47;;;;;;;50.27;23.07;;;7.60;99.90;;;;;;4877724;29;20234;-90
2021/09/07 02:06:13;;;;;;;45.33;22.37;;;7.50;99.90;;;;;;4879301;29;20189;-91
2021/09/07 02:08:39;;;;;;;44.57;22.17;;;;;;;;;;4865528;29;20555;-91
2021/09/07 02:11:04;;;;;;;47.07;22.77;;;7.50;99.90;;;;;;4883348;29;20186;-91
2021/09/07 02:13:30;;;;;;;49.17;22.50;;;7.50;99.90;;;;;;4883328;29;20197;-91
2021/09/07 02:15:55;;;;;;;41.77;21.60;;;7.50;99.90;;;;;;4866721;29;20353;-91
2021/09/07 02:18:21;;;;;;;44.13;21.97;;;7.50;99.90;;;;;;4883638;29;20222;-92
2021/09/07 02:20:47;;;;;;;49.83;21.30;;;7.40;99.90;;;;;;4867830;29;20548;-92
2021/09/07 02:23:12;;;;;;;44.70;22.17;;;7.40;99.90;;;;;;4884018;29;20186;-91
2021/09/07 02:25:38;;;;;;;46.00;21.53;;;7.40;99.90;;;;;;4868183;29;20189;-92
2021/09/07 02:28:04;;;;;;;45.23;21.70;;;;;;;;;;4867429;29;20699;-92
2021/09/07 02:30:30;;;;;;;44.53;22.20;;;7.40;99.90;;;;;;4882917;29;20178;-92
2021/09/07 02:32:56;;;;;;;44.97;21.83;;;7.40;99.90;;;;;;4866980;29;20189;-91
2021/09/07 02:35:22;;;;;;;45.83;21.90;;;7.40;99.90;;;;;;4866516;29;20190;-92
2021/09/07 02:37:49;;;;;;;45.30;20.47;;;;;;;;;;4866651;29;20712;-92
2021/09/07 02:40:15;;;;;;;39.10;20.67;;;7.40;99.90;;;;;;4882855;29;20186;-92
2021/09/07 02:42:41;;;;;;;42.03;20.20;;;;;;;;;;4883250;29;20632;-91
2021/09/07 02:45:07;;;;;;;42.53;19.90;;;7.30;99.90;;;;;;4882564;29;20273;-92
2021/09/07 02:47:32;;;;;;;40.60;20.17;;;7.30;99.90;;;;;;4882955;29;20720;-92
2021/09/07 02:49:58;;;;;;;36.37;18.47;;;7.30;99.90;;;;;;4882766;29;20719;-91
2021/09/07 02:52:23;;;;;;;39.57;18.70;;;7.30;99.90;;;;;;4850461;29;20221;-91
2021/09/07 02:54:49;;;;;;;39.57;18.63;;;7.20;99.90;;;;;;4850755;29;20276;-91
2021/09/07 02:57:15;;;;;;;37.83;17.03;;;;;;;;;;4865746;29;20227;-91
2021/09/07 02:59:41;;;;;;;32.17;16.37;;;7.20;99.90;;;;;;4882837;29;20197;-91
2021/09/07 03:02:06;;;;;;;36.97;17.23;;;7.20;99.90;;;;;;4882608;29;20186;-91
2021/09/07 03:04:32;;;;;;;34.20;17.20;;;7.30;99.90;;;;;;4865712;29;20237;-91
2021/09/07 03:06:58;;;;;;;31.53;16.13;;;7.10;99.90;;;;;;4865801;29;20186;-91
2021/09/07 03:09:23;;;;;;;37.10;17.17;;;7.10;99.90;;;;;;4865073;29;20676;-91
2021/09/07 03:11:49;;;;;;;32.90;16.43;;;7.10;99.90;;;;;;4866124;29;20193;-92
2021/09/07 03:14:15;;;;;;;35.23;17.90;;;;;;;;;;4882115;29;20185;-91
2021/09/07 03:16:41;;;;;;;41.17;18.60;;;7.10;99.90;;;;;;4865967;29;20182;-92
2021/09/07 03:19:06;;;;;;;35.17;18.13;;;7.00;99.90;;;;;;4865185;29;20290;-91
2021/09/07 03:21:32;;;;;;;32.10;16.70;;;7.00;99.90;;;;;;4865389;29;20330;-91
2021/09/07 03:23:58;;;;;;;32.00;16.93;;;6.90;99.90;;;;;;4882155;29;20189;-92
2021/09/07 03:26:24;;;;;;;34.80;17.10;;;6.90;99.90;;;;;;4881978;29;20193;-91
2021/09/07 03:28:50;;;;;;;30.77;16.17;;;;;;;;;;4865434;29;20587;-92
2021/09/07 03:31:15;;;;;;;35.23;16.80;;;6.90;99.90;;;;;;4865585;29;20560;-89
2021/09/07 03:33:41;;;;;;;35.73;17.27;;;6.90;99.90;;;;;;4865690;29;20189;-92
2021/09/07 03:36:07;;;;;;;36.93;17.33;;;6.90;99.90;;;;;;4882009;29;20186;-91
2021/09/07 03:38:32;;;;;;;33.97;16.97;;;6.80;99.90;;;;;;4849440;29;20212;-91
2021/09/07 03:40:58;;;;;;;31.80;16.50;;;6.80;99.90;;;;;;4849733;29;20186;-92
2021/09/07 03:43:24;;;;;;;36.87;19.10;;;6.80;99.90;;;;;;4864999;29;20261;-90
2021/09/07 03:45:49;;;;;;;41.83;17.73;;;6.80;99.90;;;;;;4881503;29;20190;-91
2021/09/07 03:48:15;;;;;;;37.80;17.17;;;;;;;;;;4865117;29;20221;-91
2021/09/07 03:50:41;;;;;;;35.03;16.97;;;6.80;99.90;;;;;;4881045;29;20189;-90
2021/09/07 03:53:07;;;;;;;29.80;15.73;;;6.80;99.90;;;;;;4881319;29;20194;-89
2021/09/07 03:55:32;;;;;;;39.03;16.27;;;6.80;99.90;;;;;;4864888;29;20192;-92
2021/09/07 03:57:58;;;;;;;33.47;18.17;;;6.80;99.90;;;;;;4865017;29;20213;-91
2021/09/07 04:00:24;;;;;;;34.23;16.50;;;6.80;99.90;;;;;;4834402;29;20628;-91
2021/09/07 04:02:49;;;;;;;30.17;15.70;;;6.80;99.90;;;;;;4865717;29;20700;-91
2021/09/07 04:05:15;;;;;;;38.33;16.73;;;6.80;99.90;;;;;;4864595;29;20301;-91
2021/09/07 04:07:41;;;;;;;37.33;17.07;;;6.80;99.90;;;;;;4866425;29;20293;-91
2021/09/07 04:10:07;;;;;;;33.07;16.73;;;6.80;99.90;;;;;;4891002;29;20718;-91
2021/09/07 04:12:33;;;;;;;28.13;15.20;;;;;;;;;;4884452;29;20214;-90
2021/09/07 04:14:59;;;;;;;30.10;15.80;;;6.80;99.90;;;;;;4867132;29;20194;-91
2021/09/07 04:17:25;;;;;;;33.03;15.27;;;6.80;99.90;;;;;;4867003;29;20659;-89
2021/09/07 04:19:50;;;;;;;27.93;15.37;;;6.80;99.90;;;;;;4890070;29;20190;-89
2021/09/07 04:22:16;;;;;;;27.40;14.23;;;6.80;99.90;;;;;;4867622;29;20227;-91
2021/09/07 04:24:42;;;;;;;39.37;16.63;;;6.80;99.90;;;;;;4862794;29;20218;-89
2021/09/07 04:27:07;;;;;;;28.00;15.50;;;6.90;99.90;;;;;;4883730;29;20221;-89
2021/09/07 04:29:34;;;;;;;33.57;16.53;;;6.90;99.90;;;;;;4863152;29;20214;-91
2021/09/07 04:32:00;;;;;;;34.47;16.33;;;;;;;;;;4852585;29;20187;-92
2021/09/07 04:34:26;;;;;;;37.00;15.47;;;;;;;;;;4879442;29;20568;-90
2021/09/07 04:36:51;;;;;;;29.80;15.00;;;7.00;99.90;;;;;;4879324;29;20189;-91
2021/09/07 04:39:17;;;;;;;30.97;15.13;;;;;;;;;;4879684;29;20194;-91
2021/09/07 04:41:44;;;;;;;29.23;15.20;;;7.00;99.90;;;;;;4862671;29;20186;-91
2021/09/07 04:44:09;;;;;;;34.47;15.57;;;7.10;99.90;;;;;;4863016;29;20217;-91
2021/09/07 04:46:35;;;;;;;30.67;16.13;;;7.10;99.90;;;;;;4874986;29;20221;-92
2021/09/07 04:49:01;;;;;;;36.50;15.93;;;7.10;99.90;;;;;;4866047;29;20571;-92
2021/09/07 04:51:27;;;;;;;30.33;14.70;;;7.20;99.90;;;;;;4883096;29;20201;-91
2021/09/07 04:53:53;;;;;;;32.00;14.70;;;7.20;99.90;;;;;;4882087;29;20190;-90
2021/09/07 04:56:18;;;;;;;25.77;13.93;;;7.30;99.90;;;;;;4863973;29;20272;-91
2021/09/07 04:58:45;;;;;;;28.63;14.33;;;7.50;99.90;;;;;;4879236;29;20208;-90
2021/09/07 05:01:11;;;;;;;30.13;15.33;;;7.70;99.90;;;;;;4897818;29;20201;-92
2021/09/07 05:03:36;;;;;;;31.60;14.87;;;7.60;99.90;;;;;;4918562;29;20200;-90
2021/09/07 05:06:02;;;;;;;31.70;15.60;;;;;;;;;;4911285;29;20194;-89
2021/09/07 05:08:28;;;;;;;28.87;14.80;;;7.80;99.90;;;;;;4902676;29;20215;-88
2021/09/07 05:10:54;;;;;;;25.23;13.57;;;7.90;99.90;;;;;;4904808;29;20169;-90
2021/09/07 05:13:19;;;;;;;38.80;15.10;;;8.00;99.90;;;;;;4922464;29;20201;-89
2021/09/07 05:15:45;;;;;;;23.27;12.77;;;8.20;99.90;;;;;;4921610;29;20197;-90
2021/09/07 05:18:11;;;;;;;24.20;12.17;;;8.30;99.90;;;;;;4925591;29;20195;-90
2021/09/07 05:20:37;;;;;;;27.77;13.63;;;8.40;99.90;;;;;;4914709;29;20275;-90
2021/09/07 05:23:03;;;;;;;25.13;12.90;;;;;;;;;;4889177;29;20221;-89
2021/09/07 05:25:30;;;;;;;24.27;13.00;;;8.60;99.90;;;;;;4920353;29;20177;-88
2021/09/07 05:27:56;;;;;;;23.23;12.60;;;;;;;;;;4920741;29;20173;-88
2021/09/07 05:30:22;;;;;;;24.57;11.80;;;8.70;99.90;;;;;;4902113;29;20229;-90
2021/09/07 05:32:48;;;;;;;22.97;12.23;;;8.80;99.90;;;;;;4891028;29;20817;-90
2021/09/07 05:35:14;;;;;;;21.27;12.20;;;8.90;99.90;;;;;;4891948;29;20280;-90
2021/09/07 05:37:40;;;;;;;20.93;10.87;;;8.90;99.90;;;;;;4893013;29;20673;-91
2021/09/07 05:40:11;;;;;;;24.97;12.90;;;8.90;99.90;;;;;;4897468;29;20189;-89
2021/09/07 05:42:41;;;;;;;21.80;12.03;;;9.00;99.90;;;;;;4881316;29;20260;-88
2021/09/07 05:45:08;;;;;;;22.60;12.40;;;9.00;99.90;;;;;;4880455;29;20590;-91
2021/09/07 05:47:34;;;;;;;23.93;11.63;;;;;;;;;;4896457;29;20189;-89
2021/09/07 05:49:59;;;;;;;22.17;11.60;;;9.10;99.90;;;;;;4867543;29;20217;-89
2021/09/07 05:52:25;;;;;;;25.93;12.30;;;9.10;99.90;;;;;;4879588;29;20188;-89
2021/09/07 05:54:51;;;;;;;23.13;12.47;;;;;;;;;;4896586;29;20193;-89
2021/09/07 05:57:17;;;;;;;26.47;12.77;;;;;;;;;;4863716;29;20322;-89
2021/09/07 05:59:43;;;;;;;32.77;11.77;;;;;;;;;;4891532;29;20192;-89
2021/09/07 06:02:09;;;;;;;27.47;12.57;;;9.20;99.90;;;;;;4895974;29;20863;-89
2021/09/07 06:04:35;;;;;;;24.20;11.87;;;;;;;;;;4875288;29;20242;-88
2021/09/07 06:07:00;;;;;;;28.27;10.80;;;9.40;99.90;;;;;;4877382;29;20192;-89
2021/09/07 06:09:26;;;;;;;19.50;10.47;;;9.50;99.90;;;;;;4843465;29;20619;-90
2021/09/07 06:11:52;;;;;;;25.97;11.67;;;;;;;;;;4860938;29;20539;-89
2021/09/07 06:14:18;;;;;;;27.23;10.77;;;9.80;99.90;;;;;;4879830;29;20185;-88
2021/09/07 06:16:43;;;;;;;21.57;9.80;;;9.90;99.90;;;;;;4881674;29;20185;-89
2021/09/07 06:19:09;;;;;;;23.63;10.13;;;10.10;99.90;;;;;;4884393;29;20190;-90
2021/09/07 06:21:35;;;;;;;15.50;8.43;;;10.30;99.90;;;;;;4846813;29;20191;-89
2021/09/07 06:24:00;;;;;;;21.80;9.60;;;10.50;99.90;;;;;;4879246;29;20648;-89
2021/09/07 06:26:26;;;;;;;19.90;8.63;;;10.60;99.90;;;;;;4845484;29;20198;-88
2021/09/07 06:28:52;;;;;;;19.23;8.57;;;10.80;99.90;;;;;;4890528;29;20237;-89
2021/09/07 06:31:17;;;;;;;18.47;8.23;;;10.90;99.90;;;;;;4882650;29;20193;-89
2021/09/07 06:33:43;;;;;;;17.80;7.40;;;11.10;99.90;;;;;;4885475;29;20189;-89
2021/09/07 06:36:09;;;;;;;15.63;7.40;;;11.30;99.90;;;;;;4867946;29;20186;-89
2021/09/07 06:38:34;;;;;;;20.10;8.13;;;11.40;99.90;;;;;;4884353;29;20194;-90
2021/09/07 06:41:00;;;;;;;18.35;7.63;;;11.60;99.90;;;;;;4869114;29;20194;-90
2021/09/07 06:43:26;;;;;;;16.88;7.40;;;11.80;99.90;;;;;;4889870;29;20186;-90
2021/09/07 06:45:51;;;;;;;17.17;6.65;;;11.90;99.90;;;;;;4876804;29;20237;-91
2021/09/07 06:48:17;;;;;;;23.70;7.78;;;12.10;99.90;;;;;;4876758;29;20186;-90
2021/09/07 06:50:43;;;;;;;19.23;7.88;;;12.30;99.90;;;;;;4878352;29;20194;-88
2021/09/07 06:53:09;;;;;;;15.88;6.10;;;;;;;;;;4894504;29;20594;-90
2021/09/07 06:55:38;;;;;;;13.55;5.63;;;12.60;99.90;;;;;;4893966;29;20245;-90
2021/09/07 06:58:03;;;;;;;17.23;6.82;;;12.80;99.90;;;;;;4890700;29;20174;-90
2021/09/07 07:00:29;;;;;;;11.48;5.78;;;13.00;99.90;;;;;;4859482;29;20201;-91
2021/09/07 07:02:55;;;;;;;10.85;5.10;;;13.10;99.90;;;;;;4858117;29;20193;-91
2021/09/07 07:05:20;;;;;;;13.27;4.85;;;13.20;99.90;;;;;;4894294;29;20240;-90
2021/09/07 07:07:46;;;;;;;9.30;5.07;;;13.40;99.90;;;;;;4885958;29;20186;-87
2021/09/07 07:10:12;;;;;;;9.25;4.78;;;13.60;99.90;;;;;;4877916;29;20241;-90
2021/09/07 07:12:37;;;;;;;11.00;4.32;;;13.70;99.90;;;;;;4885036;29;20223;-89
2021/09/07 07:15:04;;;;;;;11.73;4.78;;;13.90;99.90;;;;;;4914834;29;20194;-89
2021/09/07 07:17:29;;;;;;;10.10;5.10;;;14.00;99.90;;;;;;4896567;29;20201;-88
2021/09/07 07:19:55;;;;;;;14.10;5.10;;;14.20;99.90;;;;;;4895291;29;20189;-88
2021/09/07 07:22:24;;;;;;;10.05;4.57;;;14.30;99.90;;;;;;4919048;29;20181;-89
2021/09/07 07:24:50;;;;;;;9.98;5.32;;;14.40;99.90;;;;;;4872201;29;20247;-89
2021/09/07 07:27:15;;;;;;;12.32;4.85;;;14.40;99.90;;;;;;4910657;29;20643;-88
2021/09/07 07:29:41;;;;;;;13.45;4.95;;;;;;;;;;4885158;29;20213;-89
2021/09/07 07:32:07;;;;;;;10.75;4.55;;;14.60;99.90;;;;;;4889548;29;20532;-89
2021/09/07 07:34:33;;;;;;;9.07;4.68;;;14.70;99.90;;;;;;4868750;29;20201;-89
2021/09/07 07:37:00;;;;;;;7.90;4.88;;;14.90;99.90;;;;;;4875928;29;20185;-88
2021/09/07 07:39:25;;;;;;;7.43;4.13;;;15.00;99.90;;;;;;4874962;29;20193;-88
2021/09/07 07:41:51;;;;;;;8.35;4.25;;;15.20;99.90;;;;;;4870963;29;20193;-87
2021/09/07 07:44:17;;;;;;;7.90;3.95;;;15.30;99.90;;;;;;4887931;29;20257;-88
2021/09/07 07:46:43;;;;;;;15.20;3.97;;;15.40;99.90;;;;;;4893618;29;20376;-88
2021/09/07 07:49:08;;;;;;;6.70;3.70;;;15.50;99.90;;;;;;4886328;29;20285;-88
2021/09/07 07:51:34;;;;;;;5.82;3.30;;;15.70;99.90;;;;;;4901587;29;20195;-87
2021/09/07 07:54:00;;;;;;;7.68;3.55;;;15.80;99.90;;;;;;4899496;29;20513;-88
2021/09/07 07:56:25;;;;;;;8.15;5.00;;;15.90;99.90;;;;;;4909409;29;20189;-88
2021/09/07 07:58:51;;;;;;;9.52;4.38;;;16.00;99.90;;;;;;4890980;29;20197;-87
2021/09/07 08:01:17;;;;;;;14.50;4.47;;;16.20;99.90;;;;;;4897908;29;20651;-87
2021/09/07 08:03:46;;;;;;;11.73;5.57;;;16.30;99.90;;;;;;4897899;29;20272;-87
2021/09/07 08:06:12;;;;;;;10.50;4.03;;;18.40;99.90;;;;;;4880946;29;20181;-88
2021/09/07 08:08:38;;;;;;;8.35;3.75;;;16.60;99.90;;;;;;4895724;29;20564;-87
2021/09/07 08:11:03;;;;;;;8.45;3.58;;;16.80;99.90;;;;;;4900661;29;20184;-87
2021/09/07 08:13:29;;;;;;;6.70;3.38;;;16.90;99.90;;;;;;4898380;29;20273;-87
2021/09/07 08:15:55;;;;;;;8.10;3.45;;;17.00;99.90;;;;;;4898904;29;20181;-89
2021/09/07 08:18:20;;;;;;;7.20;3.58;;;17.00;99.90;;;;;;4888521;29;20754;-88
2021/09/07 08:20:48;;;;;;;6.97;3.70;;;17.00;99.90;;;;;;4890657;29;20177;-89
2021/09/07 08:23:14;;;;;;;8.48;3.63;;;16.50;99.90;;;;;;4906424;29;20689;-89
2021/09/07 08:25:40;;;;;;;5.82;3.30;;;17.10;99.90;;;;;;4898151;29;20178;-87
2021/09/07 08:28:07;;;;;;;5.63;2.80;;;17.10;99.90;;;;;;4872737;29;20689;-86
2021/09/07 08:30:32;;;;;;;6.80;2.72;;;17.30;99.90;;;;;;4900396;29;20185;-87
2021/09/07 08:32:58;;;;;;;7.88;3.38;;;17.40;99.90;;;;;;4903298;29;20726;-87
2021/09/07 08:35:24;;;;;;;4.82;2.92;;;17.50;99.90;;;;;;4882920;29;20756;-88
2021/09/07 08:37:49;;;;;;;12.30;3.63;;;17.50;99.90;;;;;;4863177;29;20197;-87
2021/09/07 08:40:15;;;;;;;9.07;4.40;;;17.60;99.90;;;;;;4882269;29;20186;-88
2021/09/07 08:42:41;;;;;;;7.82;3.50;;;17.50;99.90;;;;;;4862210;29;20221;-87
2021/09/07 08:45:11;;;;;;;10.38;3.88;;;17.50;99.90;;;;;;4889596;29;20733;-87
2021/09/07 08:47:37;;;;;;;5.45;2.90;;;17.60;99.90;;;;;;4887891;29;20186;-88
2021/09/07 08:50:03;;;;;;;7.18;2.83;;;17.80;99.90;;;;;;4866532;29;20272;-87
2021/09/07 08:52:30;;;;;;;7.57;2.80;;;18.00;99.90;;;;;;4895688;29;20276;-86
2021/09/07 08:54:56;;;;;;;7.35;2.90;;;18.10;99.90;;;;;;4895645;29;20376;-88
2021/09/07 08:57:21;;;;;;;8.98;3.47;;;18.20;99.90;;;;;;4896036;29;20675;-88
2021/09/07 08:59:58;;;;;;;10.18;3.67;;;18.30;99.90;;;;;;4848614;29;20200;-88
2021/09/07 09:02:26;;;;;;;7.32;3.08;;;18.30;99.90;;;;;;4887157;29;20200;-88
2021/09/07 09:04:52;;;;;;;4.15;2.50;;;18.20;99.90;;;;;;4871272;29;20700;-87
2021/09/07 09:07:21;;;;;;;5.50;3.30;;;18.20;99.90;;;;;;4884909;29;20225;-89
2021/09/07 09:09:49;;;;;;;6.97;2.92;;;18.30;99.90;;;;;;4880895;29;20206;-90
2021/09/07 09:12:36;;;;;;;7.70;3.08;;;18.40;99.90;;;;;;4879830;29;20502;-89
2021/09/07 09:15:09;;;;;;;9.13;2.83;;;17.40;99.90;;;;;;4865167;29;20200;-88
2021/09/07 09:17:35;;;;;;;5.25;2.42;;;18.50;99.90;;;;;;4865572;29;20275;-87
2021/09/07 09:20:08;;;;;;;4.28;3.05;;;18.50;99.90;;;;;;4877144;29;20211;-88
2021/09/07 09:22:48;;;;;;;5.57;2.95;;;18.60;99.90;;;;;;4877971;29;20268;-88
2021/09/07 09:25:20;;;;;;;5.65;2.83;;;18.70;99.50;;;;;;4860767;29;20183;-88
2021/09/07 09:27:49;;;;;;;5.75;2.60;;;18.80;99.90;;;;;;4864740;29;20196;-89
2021/09/07 09:30:16;;;;;;;5.18;2.63;;;18.80;99.90;;;;;;4869173;29;20203;-88
2021/09/07 09:32:48;;;;;;;6.95;2.95;;;18.90;99.90;;;;;;4862264;29;20680;-89
2021/09/07 09:35:13;;;;;;;5.05;3.00;;;19.00;99.90;;;;;;4866653;29;20191;-89
2021/09/07 09:37:54;;;;;;;8.10;2.75;;;19.10;99.90;;;;;;4845872;29;20189;-89
2021/09/07 09:40:20;;;;;;;6.75;3.17;;;19.30;98.40;;;;;;4879356;29;20218;-89
2021/09/07 09:42:49;;;;;;;4.78;2.45;;;19.40;98.60;;;;;;4846086;29;20242;-89
2021/09/07 09:45:17;;;;;;;5.18;3.00;;;19.40;97.70;;;;;;4853658;29;20258;-89
2021/09/07 09:47:45;;;;;;;8.45;3.15;;;19.50;96.20;;;;;;4853236;29;20193;-88
2021/09/07 09:50:14;;;;;;;6.63;3.08;;;19.60;98.00;;;;;;4866846;29;20205;-88
2021/09/07 09:52:41;;;;;;;5.07;2.95;;;19.50;96.30;;;;;;4870978;29;20201;-89
2021/09/07 09:55:09;;;;;;;8.63;3.97;;;19.50;96.90;;;;;;4862302;29;20223;-88
2021/09/07 09:57:37;;;;;;;13.18;7.05;;;19.40;97.70;;;;;;4887155;29;20193;-89
2021/09/07 10:00:05;;;;;;;16.40;8.43;;;19.60;97.80;;;;;;4884882;29;20257;-88
2021/09/07 10:02:32;;;;;;;5.90;3.15;;;19.70;96.70;;;;;;4862257;29;20256;-89
2021/09/07 10:04:58;;;;;;;8.32;2.95;;;19.80;95.90;;;;;;4863494;29;20241;-89
2021/09/07 10:07:26;;;;;;;6.78;3.00;;;19.90;96.80;;;;;;4867389;29;20188;-88
2021/09/07 10:09:53;;;;;;;8.43;3.28;;;20.00;95.20;;;;;;4872497;29;20763;-89
2021/09/07 10:12:40;;;;;;;9.52;3.40;;;20.00;93.00;;;;;;4884967;29;20648;-89
2021/09/07 10:15:27;;;;;;;7.82;3.47;;;19.80;92.90;;;;;;4863368;29;20194;-90
2021/09/07 10:18:30;;;;;;;9.13;4.65;;;19.90;94.90;;;;;;4867376;29;20174;-88
2021/09/07 10:21:10;;;;;;;6.97;3.10;;;20.00;95.10;;;;;;4861973;29;20208;-86
2021/09/07 10:23:53;;;;;;;9.93;2.85;;;20.20;95.00;;;;;;4862445;29;20246;-89
2021/09/07 10:26:39;;;;;;;7.30;2.97;;;20.50;92.60;;;;;;4877138;29;20174;-89
2021/09/07 10:29:17;;;;;;;8.57;3.10;;;20.60;92.10;;;;;;4876878;29;20300;-89
2021/09/07 10:31:52;;;;;;;7.22;2.78;;;20.30;91.80;;;;;;4864963;29;20276;-88
2021/09/07 10:34:20;;;;;;;9.02;2.80;;;20.10;91.20;;;;;;4886469;29;20189;-88
2021/09/07 10:37:05;;;;;;;4.32;2.55;;;20.30;91.50;;;;;;4865489;29;20179;-88
2021/09/07 10:39:39;;;;;;;12.48;3.13;;;20.30;91.20;;;;;;4862524;29;20190;-89
2021/09/07 10:42:31;;;;;;;8.52;3.03;;;20.30;91.40;;;;;;4851554;29;20260;-88
2021/09/07 10:44:59;;;;;;;5.88;3.47;;;20.60;90.80;;;;;;4864640;29;20192;-89
2021/09/07 10:47:42;;;;;;;7.97;2.90;;;20.80;91.70;;;;;;4880877;29;20174;-89
2021/09/07 10:50:08;;;;;;;7.20;3.03;;;20.90;89.10;;;;;;4883600;29;20213;-88
2021/09/07 10:52:35;;;;;;;7.85;2.85;;;20.90;86.30;;;;;;4856791;29;20194;-89
2021/09/07 10:55:06;;;;;;;9.25;2.90;;;20.90;87.00;;;;;;4860711;29;20190;-89
2021/09/07 10:57:34;;;;;;;7.25;3.55;;;21.00;87.10;;;;;;4879740;29;20285;-86
2021/09/07 11:00:02;;;;;;;7.72;4.63;;;20.90;84.60;;;;;;4864762;29;20773;-88
2021/09/07 11:02:55;;;;;;;5.40;2.85;;;20.70;84.80;;;;;;4879910;29;20178;-88
2021/09/07 11:05:23;;;;;;;7.32;3.03;;;20.70;83.30;;;;;;4894252;29;20240;-87
2021/09/07 11:08:07;;;;;;;7.82;3.25;;;20.70;86.30;;;;;;4899446;29;20288;-89
2021/09/07 11:10:34;;;;;;;8.90;3.10;;;20.30;88.50;;;;;;4881461;29;20213;-88
2021/09/07 11:13:23;;;;;;;4.90;3.10;;;20.20;89.00;;;;;;4892694;29;20182;-90
2021/09/07 11:15:50;;;;;;;7.55;4.35;;;20.30;90.30;;;;;;4893706;29;20213;-88
2021/09/07 11:18:28;;;;;;;10.52;3.05;;;20.50;91.50;;;;;;4913046;29;20181;-88
2021/09/07 11:20:56;;;;;;;10.75;3.10;;;19.90;90.30;;;;;;4901310;29;20709;-88
2021/09/07 11:23:24;;;;;;;10.15;3.85;;;20.60;91.50;;;;;;4891519;29;20177;-86
2021/09/07 11:26:10;;;;;;;11.38;4.03;;;20.70;90.80;;;;;;4885836;29;20203;-88
2021/09/07 11:28:37;;;;;;;9.45;3.95;;;20.80;91.00;;;;;;4884913;29;20686;-87
2021/09/07 11:31:10;;;;;;;10.20;4.30;;;20.90;90.70;;;;;;4886927;29;20592;-89
2021/09/07 11:33:37;;;;;;;7.07;3.05;;;21.00;90.70;;;;;;4890908;29;20229;-88
2021/09/07 11:36:06;;;;;;;11.15;3.85;;;20.80;89.00;;;;;;4896809;29;20182;-88
2021/09/07 11:38:35;;;;;;;46.65;8.73;;;20.70;87.90;;;;;;4895047;29;20189;-88
2021/09/07 11:41:28;;;;;;;7.63;3.42;;;20.60;88.00;;;;;;4903949;29;20710;-88
2021/09/07 11:43:57;;;;;;;8.52;3.40;;;20.60;88.50;;;;;;4901000;29;20218;-88
2021/09/07 11:46:37;;;;;;;7.90;3.35;;;20.60;89.50;;;;;;4896643;29;20181;-88
2021/09/07 11:49:13;;;;;;;10.93;3.58;;;20.60;87.30;;;;;;4918975;29;20210;-87
2021/09/07 11:51:45;;;;;;;5.60;3.10;;;20.50;90.50;;;;;;4923502;29;20201;-88
2021/09/07 11:54:16;;;;;;;8.02;3.47;;;20.50;86.30;;;;;;4897417;29;20182;-88
2021/09/07 11:56:41;;;;;;;8.18;3.28;;;20.20;86.40;;;;;;4906603;29;20197;-87
2021/09/07 11:59:18;;;;;;;6.10;3.50;;;20.30;87.60;;;;;;4926113;29;20197;-88
2021/09/07 12:01:48;;;;;;;7.88;3.85;;;20.30;88.80;;;;;;4909744;29;20213;-88
2021/09/07 12:04:17;;;;;;;10.32;5.05;;;20.40;88.00;;;;;;4898672;29;20236;-89
2021/09/07 12:06:51;;;;;;;11.38;7.32;;;20.60;89.10;;;;;;4895164;29;20193;-87
2021/09/07 12:09:22;;;;;;;12.90;6.18;;;20.80;90.10;;;;;;4905613;29;20204;-89
2021/09/07 12:11:51;;;;;;;8.65;3.67;;;21.00;88.60;;;;;;4900581;29;20195;-87
2021/09/07 12:14:24;;;;;;;8.25;4.07;;;21.10;88.60;;;;;;4895518;29;20213;-88
2021/09/07 12:17:05;;;;;;;7.53;4.03;;;21.20;89.10;;;;;;4926207;29;20169;-87
2021/09/07 12:19:38;;;;;;;13.30;5.63;;;21.30;87.10;;;;;;4902024;29;20201;-88
2021/09/07 12:22:09;;;;;;;8.30;3.75;;;21.80;89.00;;;;;;4890918;29;20197;-87
2021/09/07 12:24:38;;;;;;;6.72;3.45;;;21.30;87.10;;;;;;4914344;29;20190;-90
2021/09/07 12:27:21;;;;;;;9.13;3.35;;;21.20;85.50;;;;;;4884659;29;20181;-88
2021/09/07 12:32:22;;;;;;;5.78;3.63;;;20.90;84.90;;;;;;4991888;23;20251;-86
2021/09/07 12:34:51;;;;;;;13.52;6.45;;;20.90;88.70;;;;;;4860631;29;20197;-87
2021/09/07 12:37:17;;;;;;;10.98;4.57;;;;;;;;;;4892529;29;20197;-86
2021/09/07 12:39:43;;;;;;;10.18;3.65;;;21.40;87.90;;;;;;4871205;29;20730;-83
2021/09/07 12:42:09;;;;;;;9.43;3.72;;;21.70;86.90;;;;;;4883144;29;20188;-86
2021/09/07 12:44:35;;;;;;;6.47;3.85;;;21.90;86.10;;;;;;4877064;29;20201;-87
2021/09/07 12:47:01;;;;;;;8.82;3.67;;;21.90;85.20;;;;;;4890998;29;20181;-88
2021/09/07 12:49:27;;;;;;;6.07;3.45;;;;;;;;;;4885707;29;20216;-88
2021/09/07 12:51:53;;;;;;;10.82;3.28;;;22.20;83.60;;;;;;4880031;29;20193;-89
2021/09/07 12:54:18;;;;;;;12.77;3.80;;;22.00;82.50;;;;;;4872216;29;20244;-88